createdAt,value
2023-05-18T00:02:26.000Z,5.84
2023-05-18T00:07:21.000Z,5.8
2023-05-18T00:12:15.000Z,5.8
2023-05-18T00:17:10.000Z,5.79
2023-05-18T00:22:02.000Z,5.68
2023-05-18T00:26:56.000Z,5.55
2023-05-18T00:31:50.000Z,5.38
2023-05-18T00:36:45.000Z,5.08
2023-05-18T00:41:39.000Z,4.96
2023-05-18T00:46:33.000Z,4.79
2023-05-18T00:51:27.000Z,4.77
2023-05-18T00:56:21.000Z,4.8
2023-05-18T01:01:15.000Z,4.77
2023-05-18T01:06:10.000Z,4.68
2023-05-18T01:11:04.000Z,4.46
2023-05-18T01:15:59.000Z,4.48
2023-05-18T01:20:53.000Z,4.46
2023-05-18T01:25:47.000Z,4.47
2023-05-18T01:30:41.000Z,4.35
2023-05-18T01:35:35.000Z,4.33
2023-05-18T01:40:30.000Z,4.26
2023-05-18T01:45:24.000Z,4.55
2023-05-18T01:50:18.000Z,4.61
2023-05-18T01:55:13.000Z,4.51
2023-05-18T02:00:07.000Z,4.5
2023-05-18T02:05:01.000Z,4.37
2023-05-18T02:09:55.000Z,4.35
2023-05-18T02:14:48.000Z,4.24
2023-05-18T02:19:43.000Z,4.39
2023-05-18T02:24:37.000Z,4.28
2023-05-18T02:29:31.000Z,4.28
2023-05-18T02:34:25.000Z,4.33
2023-05-18T02:39:19.000Z,4.47
2023-05-18T02:44:13.000Z,4.93
2023-05-18T02:49:08.000Z,4.97
2023-05-18T02:54:02.000Z,4.83
2023-05-18T02:58:56.000Z,4.75
2023-05-18T03:03:50.000Z,4.64
2023-05-18T03:08:44.000Z,4.32
2023-05-18T03:13:39.000Z,4.22
2023-05-18T03:18:31.000Z,4.24
2023-05-18T03:23:25.000Z,4.38
2023-05-18T03:28:19.000Z,4.46
2023-05-18T03:33:14.000Z,4.23
2023-05-18T03:38:08.000Z,4.28
2023-05-18T03:43:03.000Z,4
2023-05-18T03:47:57.000Z,4.43
2023-05-18T03:52:51.000Z,4.53
2023-05-18T03:57:45.000Z,4.61
2023-05-18T04:02:39.000Z,4.54
2023-05-18T04:07:34.000Z,4.58
2023-05-18T04:12:28.000Z,4.53
2023-05-18T04:17:22.000Z,4.47
2023-05-18T04:22:17.000Z,4.44
2023-05-18T04:27:11.000Z,4.54
2023-05-18T04:32:05.000Z,4.69
2023-05-18T04:36:59.000Z,4.74
2023-05-18T04:41:53.000Z,4.78
2023-05-18T04:46:48.000Z,5.17
2023-05-18T04:51:42.000Z,5.33
2023-05-18T04:56:34.000Z,5.52
2023-05-18T05:01:29.000Z,5.7
2023-05-18T05:06:23.000Z,6.02
2023-05-18T05:11:17.000Z,6.28
2023-05-18T05:16:11.000Z,6.92
2023-05-18T05:21:05.000Z,7.26
2023-05-18T05:26:00.000Z,7.32
2023-05-18T05:30:54.000Z,7.35
2023-05-18T05:35:49.000Z,7.55
2023-05-18T05:40:43.000Z,7.7
2023-05-18T05:45:38.000Z,7.91
2023-05-18T05:50:32.000Z,8.04
2023-05-18T05:55:26.000Z,8.22
2023-05-18T06:00:20.000Z,8.53
2023-05-18T06:05:15.000Z,8.37
2023-05-18T06:10:08.000Z,8.46
2023-05-18T06:15:02.000Z,8.42
2023-05-18T06:19:56.000Z,8.52
2023-05-18T06:24:49.000Z,8.59
2023-05-18T06:29:43.000Z,8.84
2023-05-18T06:34:37.000Z,8.83
2023-05-18T06:39:32.000Z,9.19
2023-05-18T06:44:25.000Z,9.24
2023-05-18T06:49:18.000Z,9.55
2023-05-18T06:54:13.000Z,9.81
2023-05-18T06:59:08.000Z,10.08
2023-05-18T07:04:02.000Z,10.62
2023-05-18T07:08:56.000Z,10.95
2023-05-18T07:13:51.000Z,10.8
2023-05-18T07:18:45.000Z,10.97
2023-05-18T07:23:39.000Z,10.85
2023-05-18T07:28:33.000Z,11.15
2023-05-18T07:33:27.000Z,11.56
2023-05-18T07:38:22.000Z,11.56
2023-05-18T07:43:16.000Z,11.52
2023-05-18T07:48:10.000Z,11.47
2023-05-18T07:53:04.000Z,11.99
2023-05-18T07:57:58.000Z,12.36
2023-05-18T08:02:52.000Z,12.23
2023-05-18T08:07:47.000Z,12.48
2023-05-18T08:12:42.000Z,12.69
2023-05-18T08:17:36.000Z,13.07
2023-05-18T08:22:30.000Z,13.23
2023-05-18T08:27:24.000Z,13.54
2023-05-18T08:32:19.000Z,13.76
2023-05-18T08:37:14.000Z,14.01
2023-05-18T08:42:08.000Z,13.85
2023-05-18T08:47:03.000Z,13.79
2023-05-18T08:51:55.000Z,14.23
2023-05-18T08:56:50.000Z,14.67
2023-05-18T09:01:44.000Z,14.62
2023-05-18T09:06:39.000Z,14.46
2023-05-18T09:11:33.000Z,15.22
2023-05-18T09:16:28.000Z,15.16
2023-05-18T09:21:23.000Z,15.21
2023-05-18T09:26:17.000Z,15.51
2023-05-18T09:31:11.000Z,15.71
2023-05-18T09:36:06.000Z,15.86
2023-05-18T09:41:00.000Z,15.9
2023-05-18T09:45:54.000Z,16.7
2023-05-18T09:50:49.000Z,18.06
2023-05-18T09:55:46.000Z,19.1
2023-05-18T10:00:42.000Z,19.97
2023-05-18T10:05:38.000Z,19.94
2023-05-18T10:10:33.000Z,20.32
2023-05-18T10:15:29.000Z,21.35
2023-05-18T10:20:24.000Z,20.48
2023-05-18T10:25:19.000Z,20.43
2023-05-18T10:30:14.000Z,20.89
2023-05-18T10:35:09.000Z,20.54
2023-05-18T10:40:02.000Z,23.05
2023-05-18T10:44:59.000Z,21.56
2023-05-18T10:49:52.000Z,22.07
2023-05-18T10:54:47.000Z,22.87
2023-05-18T10:59:42.000Z,22.86
2023-05-18T11:04:37.000Z,22.99
2023-05-18T11:09:31.000Z,23.39
2023-05-18T11:14:26.000Z,21.82
2023-05-18T11:19:17.000Z,22.24
2023-05-18T11:24:12.000Z,23.21
2023-05-18T11:29:07.000Z,23.2
2023-05-18T11:34:02.000Z,22.75
2023-05-18T11:38:57.000Z,21.56
2023-05-18T11:43:51.000Z,23.24
2023-05-18T11:48:45.000Z,22.58
2023-05-18T11:53:40.000Z,20.95
2023-05-18T11:58:34.000Z,23.57
2023-05-18T12:03:29.000Z,24.51
2023-05-18T12:08:24.000Z,25.42
2023-05-18T12:13:19.000Z,24.87
2023-05-18T12:18:13.000Z,23.13
2023-05-18T12:23:06.000Z,23.6
2023-05-18T12:28:01.000Z,24.87
2023-05-18T12:32:55.000Z,24.33
2023-05-18T12:37:50.000Z,23.85
2023-05-18T12:42:44.000Z,23.93
2023-05-18T12:47:38.000Z,21.2
2023-05-18T12:52:32.000Z,23.38
2023-05-18T12:57:27.000Z,23.99
2023-05-18T13:02:21.000Z,25.38
2023-05-18T13:07:13.000Z,24.82
2023-05-18T13:12:08.000Z,24.07
2023-05-18T13:17:02.000Z,25.33
2023-05-18T13:21:57.000Z,24.81
2023-05-18T13:26:51.000Z,25.85
2023-05-18T13:31:46.000Z,24.45
2023-05-18T13:36:40.000Z,25.48
2023-05-18T13:41:35.000Z,24.56
2023-05-18T13:46:29.000Z,24.77
2023-05-18T13:51:23.000Z,25.69
2023-05-18T13:56:17.000Z,25.49
2023-05-18T14:01:11.000Z,25.14
2023-05-18T14:06:06.000Z,25.73
2023-05-18T14:10:59.000Z,26.53
2023-05-18T14:15:53.000Z,26.23
2023-05-18T14:20:48.000Z,26.39
2023-05-18T14:25:43.000Z,26.16
2023-05-18T14:30:37.000Z,25.17
2023-05-18T14:35:31.000Z,26.39
2023-05-18T14:40:25.000Z,26.87
2023-05-18T14:45:20.000Z,26.12
2023-05-18T14:50:15.000Z,26.34
2023-05-18T14:55:11.000Z,26.45
2023-05-18T15:00:04.000Z,26.06
2023-05-18T15:04:58.000Z,25.29
2023-05-18T15:09:52.000Z,26.5
2023-05-18T15:14:46.000Z,26.26
2023-05-18T15:19:41.000Z,24.78
2023-05-18T15:24:35.000Z,26.38
2023-05-18T15:29:29.000Z,26.38
2023-05-18T15:34:24.000Z,27.34
2023-05-18T15:39:19.000Z,26.34
2023-05-18T15:44:13.000Z,26.31
2023-05-18T15:49:08.000Z,26.35
2023-05-18T15:54:02.000Z,25.83
2023-05-18T15:58:56.000Z,26.03
2023-05-18T16:03:51.000Z,26.24
2023-05-18T16:08:45.000Z,26.04
2023-05-18T16:13:40.000Z,26.01
2023-05-18T16:18:31.000Z,25.84
2023-05-18T16:23:25.000Z,25.15
2023-05-18T16:28:19.000Z,25.13
2023-05-18T16:33:13.000Z,26.45
2023-05-18T16:38:07.000Z,25.08
2023-05-18T16:43:01.000Z,24.58
2023-05-18T16:47:55.000Z,23.36
2023-05-18T16:52:49.000Z,23.76
2023-05-18T16:57:43.000Z,23.35
2023-05-18T17:02:37.000Z,24.64
2023-05-18T17:07:30.000Z,24.6
2023-05-18T17:12:24.000Z,23.83
2023-05-18T17:17:18.000Z,23.38
2023-05-18T17:22:12.000Z,22.98
2023-05-18T17:27:04.000Z,22.58
2023-05-18T17:31:58.000Z,23.12
2023-05-18T17:36:52.000Z,22.5
2023-05-18T17:41:46.000Z,22.69
2023-05-18T17:46:40.000Z,21.78
2023-05-18T17:51:35.000Z,21.73
2023-05-18T17:56:28.000Z,21.7
2023-05-18T18:01:22.000Z,21.34
2023-05-18T18:06:17.000Z,20.27
2023-05-18T18:11:11.000Z,19.51
2023-05-18T18:16:05.000Z,19.69
2023-05-18T18:20:59.000Z,18.68
2023-05-18T18:25:53.000Z,16.96
2023-05-18T18:30:48.000Z,16.39
2023-05-18T18:35:41.000Z,16.17
2023-05-18T18:40:34.000Z,16.5
2023-05-18T18:45:28.000Z,16.06
2023-05-18T18:50:21.000Z,15.34
2023-05-18T18:55:16.000Z,14.95
2023-05-18T19:00:09.000Z,14.83
2023-05-18T19:05:03.000Z,14.42
2023-05-18T19:09:57.000Z,14.36
2023-05-18T19:14:51.000Z,14.17
2023-05-18T19:19:44.000Z,14.12
2023-05-18T19:24:39.000Z,13.91
2023-05-18T19:29:33.000Z,13.76
2023-05-18T19:34:26.000Z,13.5
2023-05-18T19:39:19.000Z,13.38
2023-05-18T19:44:14.000Z,13.18
2023-05-18T19:49:08.000Z,13.17
2023-05-18T19:54:01.000Z,12.97
2023-05-18T19:58:56.000Z,13.06
2023-05-18T20:03:49.000Z,12.84
2023-05-18T20:08:44.000Z,12.58
2023-05-18T20:13:38.000Z,12.51
2023-05-18T20:18:32.000Z,12.45
2023-05-18T20:23:26.000Z,12.19
2023-05-18T20:28:20.000Z,12.11
2023-05-18T20:33:14.000Z,12.01
2023-05-18T20:38:08.000Z,11.93
2023-05-18T20:43:02.000Z,11.87
2023-05-18T20:47:56.000Z,11.64
2023-05-18T20:52:51.000Z,11.46
2023-05-18T20:57:45.000Z,11.29
2023-05-18T21:02:37.000Z,11.23
2023-05-18T21:07:31.000Z,11.1
2023-05-18T21:12:26.000Z,10.94
2023-05-18T21:17:20.000Z,10.94
2023-05-18T21:22:15.000Z,11.01
2023-05-18T21:27:09.000Z,11.11
2023-05-18T21:32:03.000Z,11.22
2023-05-18T21:36:58.000Z,11.35
2023-05-18T21:41:51.000Z,11.39
2023-05-18T21:46:46.000Z,11.37
2023-05-18T21:51:40.000Z,11.35
2023-05-18T21:56:34.000Z,11.26
2023-05-18T22:01:29.000Z,11.29
2023-05-18T22:06:23.000Z,11.31
2023-05-18T22:11:18.000Z,11.39
2023-05-18T22:16:12.000Z,11.37
2023-05-18T22:21:06.000Z,11.37
2023-05-18T22:26:00.000Z,11.3
2023-05-18T22:30:54.000Z,11.21
2023-05-18T22:35:49.000Z,11.23
2023-05-18T22:40:43.000Z,11.22
2023-05-18T22:45:38.000Z,11.18
2023-05-18T22:50:32.000Z,11.1
2023-05-18T22:55:26.000Z,11.05
2023-05-18T23:00:21.000Z,11.05
2023-05-18T23:05:15.000Z,11.04
2023-05-18T23:10:09.000Z,11.02
2023-05-18T23:15:04.000Z,10.97
2023-05-18T23:19:57.000Z,10.93
2023-05-18T23:24:51.000Z,10.95
2023-05-18T23:29:46.000Z,10.84
2023-05-18T23:34:40.000Z,10.8
2023-05-18T23:39:34.000Z,10.75
2023-05-18T23:44:28.000Z,10.74
2023-05-18T23:49:23.000Z,10.56
2023-05-18T23:54:17.000Z,10.56
2023-05-18T23:59:12.000Z,10.51
